Sandwich, IL (60548)

7:15 PM CST on February 17, 2018 (GMT -0600)
Main / Crofoot, Sandwich, IL | | Change Station

Elev 669 ft 41.65 °N, 88.62 °W | Updated 51 seconds ago

Overcast
Overcast
30.2 °F
Feels Like 30 °F
N
0.0
Wind Variable Wind from East
Gusts 0.0 mph

Today
High -- | Low -- °F
--% Chance of Precip.
Yesterday
High -- | Low -- °F
Precip. -- in
Pressure 30.07 in
Visibility 7.0 miles
Clouds Overcast 1800 ft
Windchill 30 °F
Dew Point 26 °F
Humidity 84%
Rainfall 0.00 in
Snow Depth Not available.
6:47 AM 5:30 PM
Waxing Crescent, 5% visible
METAR KARR 180052Z 29016KT 7SM OVC018 M01/M03 A3004 RMK AO2 SLP183 T10111033
Pressure 30.07 in
Visibility 7.0 miles
Clouds Overcast 1800 ft
Windchill 30 °F
Dew Point 26 °F
Humidity 84%
Rainfall 0.00 in
Snow Depth Not available.
6:47 AM 5:30 PM
Waxing Crescent, 5% visible
METAR KARR 180052Z 29016KT 7SM OVC018 M01/M03 A3004 RMK AO2 SLP183 T10111033

Get Severe Weather Alerts

Thanks for signing up!

Be on the lookout for a verification email in your inbox.

You'll start receiving the daily forecast at 6 AM.

×

10-Day Weather Forecast

Almanac

Astronomy

Feb. 17, 2018 Rise Set
Actual Time
Civil Twilight
Nautical Twilight
Astronomical Twilight
Moon
Length of Visible Light
Length of Day
Tomorrow will be .
, % of the Moon is Illuminated

Today's Extremes

State Highs State Lows

Community

WunderPhotos

Category 6

Welcome to Category 6. This is the collective home for Weather Underground's featured writeups by Dr. Jeff Masters (right), Bob Henson (left), Chris Burt, and other regular contributors.

Nearby

Air Quality

  Air Quality AQ Index Pollutant
Not available.

Snow Depth

Station Depth Elevation

Earthquake Activity

City Distance Mag. Time & Date
Minimum magnitude displayed is 2.5.

Coastal Water Temperatures

Place Temperature

Stations

Nearby Weather Stations

Station Location Temp. Windchill Dew Point Humidity Wind Precip. Elev Updated Type
                   

Watches & Warnings

There are currently no watches in effect.